createdAt,value
2022-08-17T00:01:28.962Z,10.23
2022-08-17T00:03:57.873Z,9.35
2022-08-17T00:06:29.043Z,9.77
2022-08-17T00:09:01.073Z,10.13
2022-08-17T00:11:34.492Z,10.70
2022-08-17T00:14:08.361Z,11.35
2022-08-17T00:16:55.283Z,10.77
2022-08-17T00:19:25.540Z,11.32
2022-08-17T00:22:29.916Z,10.35
2022-08-17T00:24:40.337Z,10.20
2022-08-17T00:27:06.666Z,11.45
2022-08-17T00:29:32.988Z,10.80
2022-08-17T00:32:01.578Z,10.55
2022-08-17T00:34:47.865Z,11.52
2022-08-17T00:37:14.202Z,11.50
2022-08-17T00:39:43.917Z,10.85
2022-08-17T00:42:18.787Z,11.57
2022-08-17T00:44:45.384Z,12.52
2022-08-17T00:47:11.839Z,10.82
2022-08-17T00:49:38.197Z,11.63
2022-08-17T00:52:12.334Z,12.18
2022-08-17T00:54:42.544Z,11.48
2022-08-17T00:57:19.946Z,11.45
2022-08-17T01:00:02.032Z,11.90
2022-08-17T01:05:08.843Z,11.38
2022-08-17T01:07:35.369Z,10.07
2022-08-17T01:10:08.398Z,12.75
2022-08-17T01:12:54.834Z,11.35
2022-08-17T01:15:21.774Z,13.25
2022-08-17T01:17:48.175Z,11.25
2022-08-17T01:20:14.898Z,11.27
2022-08-17T01:22:41.235Z,11.85
2022-08-17T01:25:08.709Z,12.23
2022-08-17T01:27:36.877Z,12.13
2022-08-17T01:30:58.275Z,11.45
2022-08-17T01:32:55.790Z,12.60
2022-08-17T01:35:22.156Z,10.65
2022-08-17T01:37:48.477Z,10.93
2022-08-17T01:40:22.501Z,11.23
2022-08-17T01:42:55.205Z,10.43
2022-08-17T01:45:25.903Z,11.57
2022-08-17T01:47:53.517Z,10.85
2022-08-17T01:50:25.497Z,11.20
2022-08-17T01:52:56.464Z,10.73
2022-08-17T01:55:29.342Z,11.30
2022-08-17T01:57:55.745Z,10.88
2022-08-17T02:00:22.333Z,12.20
2022-08-17T02:02:48.766Z,13.98
2022-08-17T02:05:15.289Z,11.35
2022-08-17T02:07:59.872Z,11.40
2022-08-17T02:10:32.902Z,10.02
2022-08-17T02:13:03.384Z,10.93
2022-08-17T02:15:29.859Z,10.95
2022-08-17T02:17:56.160Z,10.10
2022-08-17T02:20:42.140Z,10.65
2022-08-17T02:23:10.815Z,12.13
2022-08-17T02:25:39.735Z,10.85
2022-08-17T02:28:06.282Z,11.27
2022-08-17T02:30:59.722Z,11.18
2022-08-17T02:33:18.987Z,12.57
2022-08-17T02:35:46.783Z,11.10
2022-08-17T02:38:13.287Z,11.10
2022-08-17T02:40:39.857Z,10.75
2022-08-17T02:43:08.164Z,10.65
2022-08-17T02:45:35.873Z,11.43
2022-08-17T02:48:03.560Z,12.40
2022-08-17T02:50:29.986Z,10.95
2022-08-17T02:53:01.899Z,11.18
2022-08-17T02:55:34.615Z,10.00
2022-08-17T02:58:01.337Z,10.77
2022-08-17T03:00:31.422Z,11.20
2022-08-17T03:02:57.793Z,10.57
2022-08-17T03:05:27.381Z,10.70
2022-08-17T03:07:54.157Z,10.30
2022-08-17T03:10:21.043Z,13.98
2022-08-17T03:12:47.989Z,9.75
2022-08-17T03:15:18.820Z,10.65
2022-08-17T03:17:45.210Z,11.48
2022-08-17T03:20:13.535Z,10.27
2022-08-17T03:22:42.480Z,10.85
2022-08-17T03:25:19.946Z,11.32
2022-08-17T03:27:49.014Z,11.52
2022-08-17T03:30:18.300Z,10.32
2022-08-17T03:32:49.944Z,11.68
2022-08-17T03:35:19.620Z,11.00
2022-08-17T03:37:45.943Z,12.63
2022-08-17T03:40:13.389Z,11.27
2022-08-17T03:42:40.674Z,11.98
2022-08-17T03:45:15.587Z,13.10
2022-08-17T03:47:42.098Z,13.70
2022-08-17T03:50:11.385Z,11.80
2022-08-17T03:52:40.798Z,11.13
2022-08-17T03:55:07.497Z,10.60
2022-08-17T03:57:33.798Z,11.70
2022-08-17T04:00:00.254Z,14.57
2022-08-17T04:02:29.975Z,10.70
2022-08-17T04:04:57.217Z,12.85
2022-08-17T04:07:26.282Z,11.05
2022-08-17T04:09:53.011Z,11.18
2022-08-17T04:12:22.412Z,11.50
2022-08-17T04:14:53.740Z,11.45
2022-08-17T04:17:24.155Z,11.20
2022-08-17T04:19:50.727Z,11.02
2022-08-17T04:22:33.070Z,10.43
2022-08-17T04:25:15.341Z,11.95
2022-08-17T04:27:41.756Z,11.38
2022-08-17T04:30:09.308Z,10.45
2022-08-17T04:33:03.874Z,12.32
2022-08-17T04:35:42.684Z,10.55
2022-08-17T04:38:11.582Z,11.32
2022-08-17T04:40:38.283Z,9.95
2022-08-17T04:43:08.048Z,10.80
2022-08-17T04:45:39.359Z,11.50
2022-08-17T04:48:05.957Z,11.40
2022-08-17T04:50:39.409Z,11.98
2022-08-17T04:55:31.993Z,10.93
2022-08-17T04:57:58.332Z,12.43
2022-08-17T05:00:25.327Z,12.18
2022-08-17T05:02:54.592Z,13.48
2022-08-17T05:05:23.237Z,12.75
2022-08-17T05:07:55.105Z,11.23
2022-08-17T05:10:23.076Z,11.40
2022-08-17T05:13:20.010Z,10.77
2022-08-17T05:15:48.130Z,11.13
2022-08-17T05:18:16.795Z,13.02
2022-08-17T05:20:44.400Z,13.15
2022-08-17T05:23:15.181Z,11.15
2022-08-17T05:25:51.436Z,9.80
2022-08-17T05:28:20.835Z,12.60
2022-08-17T05:30:50.928Z,10.88
2022-08-17T05:33:21.073Z,12.70
2022-08-17T05:35:48.812Z,12.27
2022-08-17T05:38:17.489Z,10.70
2022-08-17T05:40:44.559Z,10.50
2022-08-17T05:43:20.597Z,10.52
2022-08-17T05:46:00.056Z,13.98
2022-08-17T05:48:36.783Z,14.40
2022-08-17T05:51:27.572Z,11.43
2022-08-17T05:54:21.973Z,13.57
2022-08-17T05:57:15.990Z,13.18
2022-08-17T06:00:01.558Z,15.82
2022-08-17T06:02:50.349Z,15.40
2022-08-17T06:05:35.173Z,11.25
2022-08-17T06:08:20.715Z,13.93
2022-08-17T06:11:15.977Z,9.23
2022-08-17T06:14:08.197Z,10.23
2022-08-17T06:16:39.204Z,10.02
2022-08-17T06:19:18.896Z,10.95
2022-08-17T06:21:50.970Z,9.98
2022-08-17T06:24:42.096Z,10.98
2022-08-17T06:27:33.780Z,11.23
2022-08-17T06:30:09.448Z,10.98
2022-08-17T06:32:39.069Z,10.45
2022-08-17T06:35:08.733Z,12.27
2022-08-17T06:37:53.944Z,15.10
2022-08-17T06:40:35.246Z,11.30
2022-08-17T06:43:13.335Z,11.27
2022-08-17T06:46:08.078Z,11.15
2022-08-17T06:48:43.456Z,9.25
2022-08-17T06:51:23.654Z,10.43
2022-08-17T06:54:02.513Z,10.65
2022-08-17T06:56:52.685Z,9.13
2022-08-17T06:59:25.510Z,10.10
2022-08-17T07:01:52.865Z,10.18
2022-08-17T07:04:25.062Z,11.98
2022-08-17T07:06:56.929Z,10.55
2022-08-17T07:09:36.986Z,9.43
2022-08-17T07:12:19.468Z,8.68
2022-08-17T07:14:52.768Z,11.60
2022-08-17T07:19:49.538Z,10.45
2022-08-17T07:22:50.325Z,9.77
2022-08-17T07:25:21.538Z,8.52
2022-08-17T07:27:51.024Z,13.38
2022-08-17T07:30:25.400Z,8.55
2022-08-17T07:33:14.960Z,9.30
2022-08-17T07:35:44.320Z,9.82
2022-08-17T07:38:24.209Z,8.65
2022-08-17T07:40:55.314Z,9.85
2022-08-17T07:43:41.876Z,8.63
2022-08-17T07:46:15.025Z,8.90
2022-08-17T07:51:20.254Z,8.82
2022-08-17T07:53:49.771Z,8.65
2022-08-17T07:56:34.734Z,8.32
2022-08-17T07:59:11.873Z,11.38
2022-08-17T08:01:41.898Z,8.82
2022-08-17T08:04:37.576Z,8.52
2022-08-17T08:07:27.199Z,7.72
2022-08-17T08:10:08.431Z,8.00
2022-08-17T08:12:41.602Z,10.63
2022-08-17T08:15:19.090Z,9.30
2022-08-17T08:17:59.551Z,10.13
2022-08-17T08:20:52.028Z,10.77
2022-08-17T08:23:31.869Z,6.60
2022-08-17T08:26:26.525Z,10.48
2022-08-17T08:28:59.361Z,13.70
2022-08-17T08:32:03.265Z,8.43
2022-08-17T08:35:02.315Z,10.27
2022-08-17T08:37:44.796Z,8.73
2022-08-17T08:40:38.835Z,8.35
2022-08-17T08:43:32.138Z,7.88
2022-08-17T08:46:13.351Z,8.98
2022-08-17T08:49:10.231Z,13.90
2022-08-17T08:51:59.133Z,10.18
2022-08-17T08:54:32.965Z,10.55
2022-08-17T08:57:25.707Z,14.38
2022-08-17T09:00:10.298Z,10.75
2022-08-17T09:03:01.195Z,7.85
2022-08-17T09:06:06.344Z,10.48
2022-08-17T09:08:59.361Z,9.68
2022-08-17T09:12:02.779Z,7.82
2022-08-17T09:14:47.101Z,7.05
2022-08-17T09:17:20.343Z,10.02
2022-08-17T09:22:33.193Z,12.25
2022-08-17T09:25:23.125Z,10.98
2022-08-17T09:28:06.367Z,7.22
2022-08-17T09:30:44.198Z,6.88
2022-08-17T09:33:15.565Z,9.80
2022-08-17T09:35:47.560Z,10.68
2022-08-17T09:38:26.284Z,8.05
2022-08-17T09:41:05.388Z,10.13
2022-08-17T09:43:41.580Z,8.93
2022-08-17T09:46:15.539Z,7.07
2022-08-17T09:48:50.201Z,8.38
2022-08-17T09:51:26.014Z,7.97
2022-08-17T09:53:52.380Z,7.57
2022-08-17T09:56:35.307Z,8.60
2022-08-17T09:59:38.341Z,8.48
2022-08-17T10:02:59.968Z,9.68
2022-08-17T10:05:40.314Z,8.52
2022-08-17T10:08:26.589Z,10.05
2022-08-17T10:11:05.026Z,10.25
2022-08-17T10:13:52.800Z,8.85
2022-08-17T10:16:31.749Z,9.10
2022-08-17T10:19:15.812Z,8.23
2022-08-17T10:21:47.333Z,7.85
2022-08-17T10:24:33.781Z,8.10
2022-08-17T10:27:02.994Z,9.18
2022-08-17T10:29:49.686Z,7.20
2022-08-17T10:32:29.312Z,9.40
2022-08-17T10:35:17.548Z,8.18
2022-08-17T10:38:17.589Z,8.05
2022-08-17T10:40:55.500Z,8.60
2022-08-17T10:44:37.117Z,5.75
2022-08-17T10:47:03.161Z,6.75
2022-08-17T10:49:35.911Z,10.25
2022-08-17T10:52:26.845Z,7.70
2022-08-17T10:54:58.083Z,5.68
2022-08-17T10:57:31.136Z,8.95
2022-08-17T11:00:00.828Z,7.63
2022-08-17T11:02:43.375Z,5.60
2022-08-17T11:05:28.818Z,8.98
2022-08-17T11:08:03.414Z,5.47
2022-08-17T11:10:54.893Z,5.60
2022-08-17T11:14:06.855Z,7.40
2022-08-17T11:16:43.589Z,5.35
2022-08-17T11:19:47.583Z,4.72
2022-08-17T11:22:38.713Z,7.05
2022-08-17T11:25:17.907Z,6.13
2022-08-17T11:27:45.974Z,4.45
2022-08-17T11:30:49.522Z,4.90
2022-08-17T11:36:26.389Z,5.53
2022-08-17T11:39:20.222Z,5.50
2022-08-17T11:41:52.989Z,6.90
2022-08-17T11:44:34.065Z,6.70
2022-08-17T11:47:31.303Z,7.22
2022-08-17T11:50:10.621Z,6.03
2022-08-17T11:52:46.030Z,9.80
2022-08-17T11:55:37.520Z,6.03
2022-08-17T11:58:33.979Z,6.05
2022-08-17T12:03:32.578Z,6.78
2022-08-17T12:06:06.834Z,6.40
2022-08-17T12:08:39.383Z,5.03
2022-08-17T12:11:16.254Z,5.93
2022-08-17T12:14:03.215Z,5.32
2022-08-17T12:16:29.551Z,5.28
2022-08-17T12:19:01.538Z,6.88
2022-08-17T12:21:49.002Z,6.23
2022-08-17T12:24:29.187Z,8.30
2022-08-17T12:27:00.253Z,5.40
2022-08-17T12:29:35.448Z,5.47
2022-08-17T12:32:06.019Z,6.22
2022-08-17T12:34:40.060Z,5.18
2022-08-17T12:37:23.999Z,5.18
2022-08-17T12:40:00.635Z,4.30
2022-08-17T12:42:30.548Z,5.50
2022-08-17T12:44:57.595Z,4.60
2022-08-17T12:47:24.449Z,7.00
2022-08-17T12:50:07.118Z,6.43
2022-08-17T12:52:38.340Z,4.55
2022-08-17T12:55:21.661Z,7.65
2022-08-17T12:57:56.423Z,4.70
2022-08-17T13:00:27.264Z,6.32
2022-08-17T13:02:55.016Z,5.95
2022-08-17T13:05:34.976Z,5.10
2022-08-17T13:08:03.717Z,6.78
2022-08-17T13:10:33.620Z,6.07
2022-08-17T13:13:16.463Z,13.15
2022-08-17T13:15:52.776Z,5.50
2022-08-17T13:18:37.452Z,11.45
2022-08-17T13:21:04.330Z,5.75
2022-08-17T13:23:31.058Z,7.10
2022-08-17T13:26:05.171Z,6.70
2022-08-17T13:31:27.798Z,9.00
2022-08-17T13:34:17.479Z,5.05
2022-08-17T13:36:46.868Z,5.28
2022-08-17T13:39:21.776Z,6.38
2022-08-17T13:41:50.261Z,6.72
2022-08-17T13:44:36.245Z,6.00
2022-08-17T13:47:05.397Z,7.05
2022-08-17T13:49:46.504Z,9.50
2022-08-17T13:52:44.543Z,6.28
2022-08-17T13:55:23.400Z,7.57
2022-08-17T13:58:04.205Z,6.15
2022-08-17T14:00:35.794Z,4.28
2022-08-17T14:03:04.440Z,5.72
2022-08-17T14:05:31.738Z,5.85
2022-08-17T14:08:02.695Z,8.38
2022-08-17T14:10:33.220Z,5.32
2022-08-17T14:12:59.887Z,6.25
2022-08-17T14:15:54.633Z,4.63
2022-08-17T14:18:12.857Z,5.95
2022-08-17T14:20:39.544Z,5.35
2022-08-17T14:23:05.920Z,5.93
2022-08-17T14:25:32.305Z,4.45
2022-08-17T14:27:59.026Z,5.93
2022-08-17T14:30:29.752Z,4.88
2022-08-17T14:32:57.799Z,6.82
2022-08-17T14:35:24.856Z,5.75
2022-08-17T14:37:51.975Z,4.38
2022-08-17T14:40:20.621Z,5.13
2022-08-17T14:42:50.203Z,6.57
2022-08-17T14:45:31.494Z,4.85
2022-08-17T14:50:26.881Z,7.05
2022-08-17T14:52:53.305Z,5.90
2022-08-17T14:55:22.512Z,7.88
2022-08-17T14:57:48.902Z,5.45
2022-08-17T15:00:16.093Z,4.85
2022-08-17T15:02:56.863Z,7.00
2022-08-17T15:05:25.741Z,5.97
2022-08-17T15:07:52.860Z,7.18
2022-08-17T15:10:20.056Z,6.70
2022-08-17T15:12:46.370Z,7.72
2022-08-17T15:15:15.677Z,6.65
2022-08-17T15:17:44.485Z,6.82
2022-08-17T15:20:24.743Z,4.57
2022-08-17T15:22:51.393Z,4.45
2022-08-17T15:25:18.593Z,5.45
2022-08-17T15:27:45.078Z,5.32
2022-08-17T15:30:12.084Z,4.65
2022-08-17T15:32:40.218Z,5.80
2022-08-17T15:35:08.838Z,6.55
2022-08-17T15:37:35.221Z,8.32
2022-08-17T15:40:01.958Z,6.93
2022-08-17T15:42:28.469Z,5.68
2022-08-17T15:44:54.914Z,7.68
2022-08-17T15:47:22.056Z,5.45
2022-08-17T15:49:48.601Z,5.55
2022-08-17T15:52:25.042Z,9.90
2022-08-17T15:54:57.324Z,9.05
2022-08-17T15:57:24.633Z,7.63
2022-08-17T15:59:55.118Z,6.05
2022-08-17T16:03:45.668Z,5.00
2022-08-17T16:05:22.163Z,6.53
2022-08-17T16:07:51.962Z,6.63
2022-08-17T16:10:19.356Z,5.35
2022-08-17T16:12:47.982Z,6.28
2022-08-17T16:15:15.019Z,14.27
2022-08-17T16:17:41.843Z,6.60
2022-08-17T16:20:19.593Z,6.13
2022-08-17T16:22:48.531Z,6.80
2022-08-17T16:25:18.343Z,5.53
2022-08-17T16:27:45.832Z,8.27
2022-08-17T16:30:17.419Z,6.10
2022-08-17T16:32:45.046Z,7.23
2022-08-17T16:35:13.752Z,6.18
2022-08-17T16:37:40.113Z,5.78
2022-08-17T16:40:08.657Z,5.90
2022-08-17T16:42:37.516Z,5.40
2022-08-17T16:45:25.405Z,5.13
2022-08-17T16:47:54.672Z,4.88
2022-08-17T16:50:23.749Z,8.77
2022-08-17T16:52:50.631Z,5.75
2022-08-17T16:55:19.767Z,5.53
2022-08-17T16:57:49.955Z,7.15
2022-08-17T17:00:18.732Z,4.32
2022-08-17T17:02:47.854Z,4.40
2022-08-17T17:05:37.573Z,7.60
2022-08-17T17:08:15.861Z,6.05
2022-08-17T17:10:46.565Z,5.72
2022-08-17T17:13:31.705Z,10.32
2022-08-17T17:16:19.884Z,5.68
2022-08-17T17:19:07.463Z,7.55
2022-08-17T17:21:46.811Z,6.07
2022-08-17T17:24:21.726Z,4.57
2022-08-17T17:27:07.381Z,4.60
2022-08-17T17:30:10.468Z,5.60
2022-08-17T17:32:44.475Z,5.80
2022-08-17T17:35:17.403Z,6.18
2022-08-17T17:37:45.319Z,6.25
2022-08-17T17:40:40.039Z,6.93
2022-08-17T17:43:34.942Z,4.80
2022-08-17T17:46:27.637Z,6.20
2022-08-17T17:48:56.251Z,6.50
2022-08-17T17:52:03.667Z,4.70
2022-08-17T17:54:59.292Z,7.35
2022-08-17T17:57:47.137Z,9.73
2022-08-17T18:00:38.637Z,7.25
2022-08-17T18:03:25.389Z,7.35
2022-08-17T18:06:04.563Z,5.40
2022-08-17T18:08:46.973Z,5.07
2022-08-17T18:11:24.957Z,6.45
2022-08-17T18:14:29.993Z,8.40
2022-08-17T18:16:59.464Z,7.30
2022-08-17T18:19:27.912Z,7.93
2022-08-17T18:22:16.951Z,7.20
2022-08-17T18:24:47.029Z,4.88
2022-08-17T18:27:33.450Z,4.97
2022-08-17T18:30:21.038Z,5.43
2022-08-17T18:32:47.381Z,5.50
2022-08-17T18:35:13.680Z,4.85
2022-08-17T18:37:51.269Z,4.82
2022-08-17T18:40:17.898Z,5.80
2022-08-17T18:43:01.227Z,5.05
2022-08-17T18:47:59.996Z,6.15
2022-08-17T18:50:36.019Z,7.35
2022-08-17T18:53:33.177Z,6.32
2022-08-17T18:56:17.682Z,5.82
2022-08-17T18:58:51.960Z,5.05
2022-08-17T19:01:21.015Z,5.97
2022-08-17T19:03:49.121Z,5.68
2022-08-17T19:06:30.984Z,6.50
2022-08-17T19:08:57.329Z,5.90
2022-08-17T19:11:28.436Z,6.68
2022-08-17T19:14:10.273Z,5.30
2022-08-17T19:16:51.508Z,8.00
2022-08-17T19:19:36.214Z,5.13
2022-08-17T19:22:29.282Z,5.43
2022-08-17T19:25:10.776Z,6.13
2022-08-17T19:27:49.213Z,5.82
2022-08-17T19:30:17.345Z,5.45
2022-08-17T19:32:43.717Z,6.10
2022-08-17T19:35:17.122Z,6.55
2022-08-17T19:37:49.872Z,6.55
2022-08-17T19:40:54.181Z,5.90
2022-08-17T19:43:41.916Z,6.90
2022-08-17T19:46:39.180Z,7.15
2022-08-17T19:49:20.397Z,6.95
2022-08-17T19:52:18.828Z,6.90
2022-08-17T19:55:04.480Z,5.75
2022-08-17T19:57:55.886Z,6.95
2022-08-17T20:00:22.736Z,6.88
2022-08-17T20:03:07.829Z,7.00
2022-08-17T20:06:11.438Z,8.82
2022-08-17T20:08:40.958Z,7.22
2022-08-17T20:11:14.918Z,8.30
2022-08-17T20:13:44.460Z,6.45
2022-08-17T20:16:11.966Z,6.90
2022-08-17T20:18:55.266Z,7.97
2022-08-17T20:21:28.660Z,7.35
2022-08-17T20:24:37.728Z,7.88
2022-08-17T20:27:20.106Z,7.55
2022-08-17T20:30:10.799Z,6.57
2022-08-17T20:32:52.271Z,7.10
2022-08-17T20:35:31.725Z,7.57
2022-08-17T20:38:03.913Z,7.72
2022-08-17T20:40:32.196Z,7.85
2022-08-17T20:42:59.701Z,7.85
2022-08-17T20:45:49.733Z,8.88
2022-08-17T20:48:36.742Z,7.05
2022-08-17T20:51:17.382Z,8.85
2022-08-17T20:53:47.873Z,8.07
2022-08-17T20:56:42.176Z,8.27
2022-08-17T20:59:21.157Z,7.05
2022-08-17T21:02:18.665Z,6.53
2022-08-17T21:04:59.382Z,7.28
2022-08-17T21:07:43.166Z,8.05
2022-08-17T21:10:25.547Z,7.57
2022-08-17T21:13:10.822Z,7.80
2022-08-17T21:15:55.143Z,7.80
2022-08-17T21:18:41.747Z,7.45
2022-08-17T21:21:28.304Z,7.35
2022-08-17T21:24:07.280Z,7.78
2022-08-17T21:27:11.061Z,7.53
2022-08-17T21:29:53.396Z,7.95
2022-08-17T21:35:06.247Z,6.95
2022-08-17T21:38:01.858Z,7.57
2022-08-17T21:40:32.460Z,6.13
2022-08-17T21:43:19.802Z,7.95
2022-08-17T21:45:55.064Z,7.80
2022-08-17T21:48:23.744Z,7.03
2022-08-17T21:51:01.064Z,8.50
2022-08-17T21:53:51.040Z,7.63
2022-08-17T21:56:32.729Z,7.32
2022-08-17T21:59:15.819Z,7.40
2022-08-17T22:01:43.156Z,7.55
2022-08-17T22:04:09.648Z,7.25
2022-08-17T22:06:39.907Z,8.25
2022-08-17T22:09:09.576Z,7.82
2022-08-17T22:11:56.060Z,9.07
2022-08-17T22:14:53.444Z,8.93
2022-08-17T22:17:37.069Z,7.60
2022-08-17T22:20:32.729Z,8.98
2022-08-17T22:22:58.990Z,8.50
2022-08-17T22:25:27.851Z,8.60
2022-08-17T22:28:00.174Z,8.98
2022-08-17T22:30:43.200Z,8.77
2022-08-17T22:33:35.420Z,7.90
2022-08-17T22:36:11.397Z,7.57
2022-08-17T22:38:38.941Z,7.90
2022-08-17T22:41:46.300Z,10.32
2022-08-17T22:44:16.799Z,8.52
2022-08-17T22:46:57.647Z,8.18
2022-08-17T22:49:26.096Z,7.70
2022-08-17T22:52:01.273Z,7.05
2022-08-17T22:54:28.055Z,7.25
2022-08-17T22:56:59.787Z,8.27
2022-08-17T22:59:54.586Z,7.90
2022-08-17T23:02:34.067Z,9.05
2022-08-17T23:05:09.633Z,10.05
2022-08-17T23:07:36.690Z,9.20
2022-08-17T23:10:03.866Z,10.57
2022-08-17T23:12:31.110Z,10.23
2022-08-17T23:14:59.854Z,10.00
2022-08-17T23:17:28.428Z,10.52
2022-08-17T23:19:54.920Z,8.90
2022-08-17T23:22:21.423Z,12.63
2022-08-17T23:24:48.472Z,10.00
2022-08-17T23:27:14.973Z,9.80
2022-08-17T23:29:41.383Z,10.63
2022-08-17T23:32:10.467Z,9.63
2022-08-17T23:34:37.871Z,10.98
2022-08-17T23:37:04.634Z,9.98
2022-08-17T23:39:31.201Z,9.75
2022-08-17T23:41:58.881Z,9.57
2022-08-17T23:44:26.245Z,9.93
2022-08-17T23:46:53.608Z,9.98
2022-08-17T23:49:20.300Z,8.52
2022-08-17T23:51:47.846Z,9.20
2022-08-17T23:54:22.293Z,9.10
2022-08-17T23:56:48.662Z,9.23
2022-08-17T23:59:17.718Z,10.48
